sensor_id;sensor_type;location;lat;lon;timestamp;temperature;humidity
25554;DHT22;13446;50.926;5.332;2023-02-21T00:01:58;9.60;99.90
25554;DHT22;13446;50.926;5.332;2023-02-21T00:04:42;9.60;99.90
25554;DHT22;13446;50.926;5.332;2023-02-21T00:07:26;9.70;99.90
25554;DHT22;13446;50.926;5.332;2023-02-21T00:10:12;9.70;99.90
25554;DHT22;13446;50.926;5.332;2023-02-21T00:12:56;9.80;99.90
25554;DHT22;13446;50.926;5.332;2023-02-21T00:15:40;9.80;99.90
25554;DHT22;13446;50.926;5.332;2023-02-21T00:18:25;9.50;99.90
25554;DHT22;13446;50.926;5.332;2023-02-21T00:21:09;9.40;99.90
25554;DHT22;13446;50.926;5.332;2023-02-21T00:23:53;9.40;99.90
25554;DHT22;13446;50.926;5.332;2023-02-21T00:26:37;9.40;99.90
25554;DHT22;13446;50.926;5.332;2023-02-21T00:29:22;9.50;99.90
25554;DHT22;13446;50.926;5.332;2023-02-21T00:32:06;9.70;99.90
25554;DHT22;13446;50.926;5.332;2023-02-21T00:34:50;9.70;99.90
25554;DHT22;13446;50.926;5.332;2023-02-21T00:37:34;9.70;99.90
25554;DHT22;13446;50.926;5.332;2023-02-21T00:40:18;9.70;99.90
25554;DHT22;13446;50.926;5.332;2023-02-21T00:43:03;9.60;99.90
25554;DHT22;13446;50.926;5.332;2023-02-21T00:45:47;9.50;99.90
25554;DHT22;13446;50.926;5.332;2023-02-21T00:48:31;9.50;99.90
25554;DHT22;13446;50.926;5.332;2023-02-21T00:51:15;9.40;99.90
25554;DHT22;13446;50.926;5.332;2023-02-21T00:54:00;9.60;99.90
25554;DHT22;13446;50.926;5.332;2023-02-21T00:56:44;9.60;99.90
25554;DHT22;13446;50.926;5.332;2023-02-21T00:59:28;9.70;99.90
25554;DHT22;13446;50.926;5.332;2023-02-21T01:02:12;9.60;99.90
25554;DHT22;13446;50.926;5.332;2023-02-21T01:04:56;9.60;99.90
25554;DHT22;13446;50.926;5.332;2023-02-21T01:07:41;9.50;99.90
25554;DHT22;13446;50.926;5.332;2023-02-21T01:10:25;9.50;99.90
25554;DHT22;13446;50.926;5.332;2023-02-21T01:13:09;9.70;99.90
25554;DHT22;13446;50.926;5.332;2023-02-21T01:15:54;9.60;99.90
25554;DHT22;13446;50.926;5.332;2023-02-21T01:18:38;9.60;99.90
25554;DHT22;13446;50.926;5.332;2023-02-21T01:21:22;9.50;99.90
25554;DHT22;13446;50.926;5.332;2023-02-21T01:24:08;9.40;99.90
25554;DHT22;13446;50.926;5.332;2023-02-21T01:26:52;9.50;99.90
25554;DHT22;13446;50.926;5.332;2023-02-21T01:29:37;9.50;99.90
25554;DHT22;13446;50.926;5.332;2023-02-21T01:32:21;9.50;99.90
25554;DHT22;13446;50.926;5.332;2023-02-21T01:35:14;9.30;99.90
25554;DHT22;13446;50.926;5.332;2023-02-21T01:37:58;9.20;99.90
25554;DHT22;13446;50.926;5.332;2023-02-21T01:40:42;9.20;99.90
25554;DHT22;13446;50.926;5.332;2023-02-21T01:43:27;9.20;99.90
25554;DHT22;13446;50.926;5.332;2023-02-21T01:46:12;9.30;99.90
25554;DHT22;13446;50.926;5.332;2023-02-21T01:48:58;9.30;99.90
25554;DHT22;13446;50.926;5.332;2023-02-21T01:51:42;9.40;99.90
25554;DHT22;13446;50.926;5.332;2023-02-21T01:54:29;9.50;99.90
25554;DHT22;13446;50.926;5.332;2023-02-21T01:57:14;9.50;99.90
25554;DHT22;13446;50.926;5.332;2023-02-21T01:59:58;9.60;99.90
25554;DHT22;13446;50.926;5.332;2023-02-21T02:05:31;9.40;99.90
25554;DHT22;13446;50.926;5.332;2023-02-21T02:08:16;9.40;99.90
25554;DHT22;13446;50.926;5.332;2023-02-21T02:11:12;9.50;99.90
25554;DHT22;13446;50.926;5.332;2023-02-21T02:16:35;9.60;99.90
25554;DHT22;13446;50.926;5.332;2023-02-21T02:19:13;9.50;99.90
25554;DHT22;13446;50.926;5.332;2023-02-21T02:24:29;9.50;99.90
25554;DHT22;13446;50.926;5.332;2023-02-21T02:34:48;9.10;99.90
25554;DHT22;13446;50.926;5.332;2023-02-21T02:39:54;9.30;99.90
25554;DHT22;13446;50.926;5.332;2023-02-21T02:45:53;9.40;99.90
25554;DHT22;13446;50.926;5.332;2023-02-21T02:47:48;9.20;99.90
25554;DHT22;13446;50.926;5.332;2023-02-21T02:50:15;9.20;99.90
25554;DHT22;13446;50.926;5.332;2023-02-21T02:52:51;9.20;99.90
25554;DHT22;13446;50.926;5.332;2023-02-21T02:57:48;9.30;99.90
25554;DHT22;13446;50.926;5.332;2023-02-21T03:00:15;9.30;99.90
25554;DHT22;13446;50.926;5.332;2023-02-21T03:03:07;9.30;99.90
25554;DHT22;13446;50.926;5.332;2023-02-21T03:10:45;9.20;99.90
25554;DHT22;13446;50.926;5.332;2023-02-21T03:18:17;9.20;99.90
25554;DHT22;13446;50.926;5.332;2023-02-21T03:20:44;9.10;99.90
25554;DHT22;13446;50.926;5.332;2023-02-21T03:23:12;9.20;99.90
25554;DHT22;13446;50.926;5.332;2023-02-21T03:25:38;9.30;99.90
25554;DHT22;13446;50.926;5.332;2023-02-21T03:28:04;9.20;99.90
25554;DHT22;13446;50.926;5.332;2023-02-21T03:30:30;9.30;99.90
25554;DHT22;13446;50.926;5.332;2023-02-21T03:32:56;9.10;99.90
25554;DHT22;13446;50.926;5.332;2023-02-21T03:35:22;9.10;99.90
25554;DHT22;13446;50.926;5.332;2023-02-21T03:37:51;9.20;99.90
25554;DHT22;13446;50.926;5.332;2023-02-21T03:40:22;9.20;99.90
25554;DHT22;13446;50.926;5.332;2023-02-21T03:42:49;9.20;99.90
25554;DHT22;13446;50.926;5.332;2023-02-21T03:45:15;9.30;99.90
25554;DHT22;13446;50.926;5.332;2023-02-21T03:47:41;9.20;99.90
25554;DHT22;13446;50.926;5.332;2023-02-21T03:50:06;9.20;99.90
25554;DHT22;13446;50.926;5.332;2023-02-21T03:52:32;9.20;99.90
25554;DHT22;13446;50.926;5.332;2023-02-21T03:54:57;9.20;99.90
25554;DHT22;13446;50.926;5.332;2023-02-21T03:57:23;9.30;99.90
25554;DHT22;13446;50.926;5.332;2023-02-21T03:59:49;9.20;99.90
25554;DHT22;13446;50.926;5.332;2023-02-21T04:02:14;9.10;99.90
25554;DHT22;13446;50.926;5.332;2023-02-21T04:04:40;9.10;99.90
25554;DHT22;13446;50.926;5.332;2023-02-21T04:07:06;9.10;99.90
25554;DHT22;13446;50.926;5.332;2023-02-21T04:09:31;9.20;99.90
25554;DHT22;13446;50.926;5.332;2023-02-21T04:11:57;9.20;99.90
25554;DHT22;13446;50.926;5.332;2023-02-21T04:14:22;9.30;99.90
25554;DHT22;13446;50.926;5.332;2023-02-21T04:16:48;9.30;99.90
25554;DHT22;13446;50.926;5.332;2023-02-21T04:19:14;9.20;99.90
25554;DHT22;13446;50.926;5.332;2023-02-21T04:21:39;9.20;99.90
25554;DHT22;13446;50.926;5.332;2023-02-21T04:24:05;9.10;99.90
25554;DHT22;13446;50.926;5.332;2023-02-21T04:26:30;9.10;99.90
25554;DHT22;13446;50.926;5.332;2023-02-21T04:28:56;9.00;99.90
25554;DHT22;13446;50.926;5.332;2023-02-21T04:31:21;9.10;99.90
25554;DHT22;13446;50.926;5.332;2023-02-21T04:33:47;9.00;99.90
25554;DHT22;13446;50.926;5.332;2023-02-21T04:36:13;9.20;99.90
25554;DHT22;13446;50.926;5.332;2023-02-21T04:38:40;9.10;99.90
25554;DHT22;13446;50.926;5.332;2023-02-21T04:41:05;9.20;99.90
25554;DHT22;13446;50.926;5.332;2023-02-21T04:43:31;9.10;99.90
25554;DHT22;13446;50.926;5.332;2023-02-21T04:45:57;9.10;99.90
25554;DHT22;13446;50.926;5.332;2023-02-21T04:48:22;9.10;99.90
25554;DHT22;13446;50.926;5.332;2023-02-21T04:50:48;9.00;99.90
25554;DHT22;13446;50.926;5.332;2023-02-21T04:53:13;9.10;99.90
25554;DHT22;13446;50.926;5.332;2023-02-21T04:55:39;9.30;99.90
25554;DHT22;13446;50.926;5.332;2023-02-21T04:58:05;9.10;99.90
25554;DHT22;13446;50.926;5.332;2023-02-21T05:00:30;9.00;99.90
25554;DHT22;13446;50.926;5.332;2023-02-21T05:02:56;9.00;99.90
25554;DHT22;13446;50.926;5.332;2023-02-21T05:05:22;9.00;99.90
25554;DHT22;13446;50.926;5.332;2023-02-21T05:07:47;9.00;99.90
25554;DHT22;13446;50.926;5.332;2023-02-21T05:10:13;9.10;99.90
25554;DHT22;13446;50.926;5.332;2023-02-21T05:12:39;9.10;99.90
25554;DHT22;13446;50.926;5.332;2023-02-21T05:15:05;9.10;99.90
25554;DHT22;13446;50.926;5.332;2023-02-21T05:17:30;9.00;99.90
25554;DHT22;13446;50.926;5.332;2023-02-21T05:19:56;9.10;99.90
25554;DHT22;13446;50.926;5.332;2023-02-21T05:22:21;9.10;99.90
25554;DHT22;13446;50.926;5.332;2023-02-21T05:24:48;9.00;99.90
25554;DHT22;13446;50.926;5.332;2023-02-21T05:27:15;8.90;99.90
25554;DHT22;13446;50.926;5.332;2023-02-21T05:29:41;8.90;99.90
25554;DHT22;13446;50.926;5.332;2023-02-21T05:32:07;8.80;99.90
25554;DHT22;13446;50.926;5.332;2023-02-21T05:34:32;8.90;99.90
25554;DHT22;13446;50.926;5.332;2023-02-21T05:36:58;8.90;99.90
25554;DHT22;13446;50.926;5.332;2023-02-21T05:39:24;8.90;99.90
25554;DHT22;13446;50.926;5.332;2023-02-21T05:41:50;9.00;99.90
25554;DHT22;13446;50.926;5.332;2023-02-21T05:44:16;8.90;99.90
25554;DHT22;13446;50.926;5.332;2023-02-21T05:46:41;8.90;99.90
25554;DHT22;13446;50.926;5.332;2023-02-21T05:49:07;8.80;99.90
25554;DHT22;13446;50.926;5.332;2023-02-21T05:51:34;8.90;99.90
25554;DHT22;13446;50.926;5.332;2023-02-21T05:54:00;9.00;99.90
25554;DHT22;13446;50.926;5.332;2023-02-21T05:56:26;9.00;99.90
25554;DHT22;13446;50.926;5.332;2023-02-21T05:58:51;9.00;99.90
25554;DHT22;13446;50.926;5.332;2023-02-21T06:01:17;9.00;99.90
25554;DHT22;13446;50.926;5.332;2023-02-21T06:03:43;9.10;99.90
25554;DHT22;13446;50.926;5.332;2023-02-21T06:06:08;9.00;99.90
25554;DHT22;13446;50.926;5.332;2023-02-21T06:08:41;9.10;99.90
25554;DHT22;13446;50.926;5.332;2023-02-21T06:11:07;9.00;99.90
25554;DHT22;13446;50.926;5.332;2023-02-21T06:13:32;8.90;99.90
25554;DHT22;13446;50.926;5.332;2023-02-21T06:15:58;8.90;99.90
25554;DHT22;13446;50.926;5.332;2023-02-21T06:18:23;8.90;99.90
25554;DHT22;13446;50.926;5.332;2023-02-21T06:20:49;8.80;99.90
25554;DHT22;13446;50.926;5.332;2023-02-21T06:23:14;8.90;99.90
25554;DHT22;13446;50.926;5.332;2023-02-21T06:25:40;8.80;99.90
25554;DHT22;13446;50.926;5.332;2023-02-21T06:28:05;8.80;99.90
25554;DHT22;13446;50.926;5.332;2023-02-21T06:30:31;8.90;99.90
25554;DHT22;13446;50.926;5.332;2023-02-21T06:32:56;8.90;99.90
25554;DHT22;13446;50.926;5.332;2023-02-21T06:35:22;9.00;99.90
25554;DHT22;13446;50.926;5.332;2023-02-21T06:37:48;9.00;99.90
25554;DHT22;13446;50.926;5.332;2023-02-21T06:40:14;9.10;99.90
25554;DHT22;13446;50.926;5.332;2023-02-21T06:42:40;9.20;99.90
25554;DHT22;13446;50.926;5.332;2023-02-21T06:45:05;9.10;99.90
25554;DHT22;13446;50.926;5.332;2023-02-21T06:47:31;8.90;99.90
25554;DHT22;13446;50.926;5.332;2023-02-21T06:49:56;8.80;99.90
25554;DHT22;13446;50.926;5.332;2023-02-21T06:52:22;8.80;99.90
25554;DHT22;13446;50.926;5.332;2023-02-21T06:54:49;8.50;99.90
25554;DHT22;13446;50.926;5.332;2023-02-21T06:57:14;8.50;99.90
25554;DHT22;13446;50.926;5.332;2023-02-21T06:59:40;8.40;99.90
25554;DHT22;13446;50.926;5.332;2023-02-21T07:02:06;8.30;99.90
25554;DHT22;13446;50.926;5.332;2023-02-21T07:04:32;8.40;99.90
25554;DHT22;13446;50.926;5.332;2023-02-21T07:06:58;8.20;99.90
25554;DHT22;13446;50.926;5.332;2023-02-21T07:09:24;8.20;99.90
25554;DHT22;13446;50.926;5.332;2023-02-21T07:11:49;8.20;99.90
25554;DHT22;13446;50.926;5.332;2023-02-21T07:14:15;8.40;99.90
25554;DHT22;13446;50.926;5.332;2023-02-21T07:16:41;8.60;99.90
25554;DHT22;13446;50.926;5.332;2023-02-21T07:19:06;8.30;99.90
25554;DHT22;13446;50.926;5.332;2023-02-21T07:21:32;8.20;99.90
25554;DHT22;13446;50.926;5.332;2023-02-21T07:23:58;8.40;99.90
25554;DHT22;13446;50.926;5.332;2023-02-21T07:26:23;8.40;99.90
25554;DHT22;13446;50.926;5.332;2023-02-21T07:28:49;8.60;99.90
25554;DHT22;13446;50.926;5.332;2023-02-21T07:31:15;8.70;99.90
25554;DHT22;13446;50.926;5.332;2023-02-21T07:33:41;8.60;99.90
25554;DHT22;13446;50.926;5.332;2023-02-21T07:36:07;8.60;99.90
25554;DHT22;13446;50.926;5.332;2023-02-21T07:38:32;8.70;99.90
25554;DHT22;13446;50.926;5.332;2023-02-21T07:40:59;8.90;99.90
25554;DHT22;13446;50.926;5.332;2023-02-21T07:43:25;8.80;99.90
25554;DHT22;13446;50.926;5.332;2023-02-21T07:45:51;8.60;99.90
25554;DHT22;13446;50.926;5.332;2023-02-21T07:48:18;8.40;99.90
25554;DHT22;13446;50.926;5.332;2023-02-21T07:50:44;8.60;99.90
25554;DHT22;13446;50.926;5.332;2023-02-21T07:53:10;8.80;99.90
25554;DHT22;13446;50.926;5.332;2023-02-21T07:55:35;8.90;99.90
25554;DHT22;13446;50.926;5.332;2023-02-21T07:58:01;8.90;99.90
25554;DHT22;13446;50.926;5.332;2023-02-21T08:00:27;8.90;99.90
25554;DHT22;13446;50.926;5.332;2023-02-21T08:02:52;9.00;99.90
25554;DHT22;13446;50.926;5.332;2023-02-21T08:05:18;9.00;99.90
25554;DHT22;13446;50.926;5.332;2023-02-21T08:07:44;9.10;99.90
25554;DHT22;13446;50.926;5.332;2023-02-21T08:10:10;9.00;99.90
25554;DHT22;13446;50.926;5.332;2023-02-21T08:12:36;9.10;99.90
25554;DHT22;13446;50.926;5.332;2023-02-21T08:15:02;9.00;99.90
25554;DHT22;13446;50.926;5.332;2023-02-21T08:17:29;9.10;99.90
25554;DHT22;13446;50.926;5.332;2023-02-21T08:19:54;8.90;99.90
25554;DHT22;13446;50.926;5.332;2023-02-21T08:22:20;9.00;99.90
25554;DHT22;13446;50.926;5.332;2023-02-21T08:24:50;9.10;99.90
25554;DHT22;13446;50.926;5.332;2023-02-21T08:27:16;8.80;99.90
25554;DHT22;13446;50.926;5.332;2023-02-21T08:29:41;8.60;99.90
25554;DHT22;13446;50.926;5.332;2023-02-21T08:32:07;8.70;99.90
25554;DHT22;13446;50.926;5.332;2023-02-21T08:34:33;8.50;99.90
25554;DHT22;13446;50.926;5.332;2023-02-21T08:36:58;8.60;99.90
25554;DHT22;13446;50.926;5.332;2023-02-21T08:39:24;8.70;99.90
25554;DHT22;13446;50.926;5.332;2023-02-21T08:41:54;8.70;99.90
25554;DHT22;13446;50.926;5.332;2023-02-21T08:44:20;8.80;99.90
25554;DHT22;13446;50.926;5.332;2023-02-21T08:46:49;8.70;99.90
25554;DHT22;13446;50.926;5.332;2023-02-21T08:49:22;8.80;99.90
25554;DHT22;13446;50.926;5.332;2023-02-21T08:51:47;9.00;99.90
25554;DHT22;13446;50.926;5.332;2023-02-21T08:54:13;9.00;99.90
25554;DHT22;13446;50.926;5.332;2023-02-21T08:56:40;9.00;99.90
25554;DHT22;13446;50.926;5.332;2023-02-21T08:59:05;9.10;99.90
25554;DHT22;13446;50.926;5.332;2023-02-21T09:01:34;9.20;99.90
25554;DHT22;13446;50.926;5.332;2023-02-21T09:04:00;9.10;99.90
25554;DHT22;13446;50.926;5.332;2023-02-21T09:06:26;9.20;99.90
25554;DHT22;13446;50.926;5.332;2023-02-21T09:08:51;9.50;99.90
25554;DHT22;13446;50.926;5.332;2023-02-21T09:11:17;9.50;99.90
25554;DHT22;13446;50.926;5.332;2023-02-21T09:13:42;9.40;99.90
25554;DHT22;13446;50.926;5.332;2023-02-21T09:16:08;9.50;99.90
25554;DHT22;13446;50.926;5.332;2023-02-21T09:18:33;9.60;99.90
25554;DHT22;13446;50.926;5.332;2023-02-21T09:20:59;9.50;99.90
25554;DHT22;13446;50.926;5.332;2023-02-21T09:23:25;9.50;99.90
25554;DHT22;13446;50.926;5.332;2023-02-21T09:25:53;9.60;99.90
25554;DHT22;13446;50.926;5.332;2023-02-21T09:28:19;9.50;99.90
25554;DHT22;13446;50.926;5.332;2023-02-21T09:30:45;9.40;99.90
25554;DHT22;13446;50.926;5.332;2023-02-21T09:33:11;9.60;99.90
25554;DHT22;13446;50.926;5.332;2023-02-21T09:35:37;9.60;99.90
25554;DHT22;13446;50.926;5.332;2023-02-21T09:38:03;9.60;99.90
25554;DHT22;13446;50.926;5.332;2023-02-21T09:43:36;9.60;99.90
25554;DHT22;13446;50.926;5.332;2023-02-21T09:48:35;9.70;99.90
25554;DHT22;13446;50.926;5.332;2023-02-21T09:51:01;9.70;99.90
25554;DHT22;13446;50.926;5.332;2023-02-21T09:53:29;9.60;99.90
25554;DHT22;13446;50.926;5.332;2023-02-21T09:55:59;9.50;99.90
25554;DHT22;13446;50.926;5.332;2023-02-21T09:58:26;9.60;99.90
25554;DHT22;13446;50.926;5.332;2023-02-21T10:00:54;9.60;99.90
25554;DHT22;13446;50.926;5.332;2023-02-21T10:03:27;9.70;99.90
25554;DHT22;13446;50.926;5.332;2023-02-21T10:08:25;9.70;99.90
25554;DHT22;13446;50.926;5.332;2023-02-21T10:10:59;9.80;99.90
25554;DHT22;13446;50.926;5.332;2023-02-21T10:13:33;9.60;99.90
25554;DHT22;13446;50.926;5.332;2023-02-21T10:16:13;9.40;99.90
25554;DHT22;13446;50.926;5.332;2023-02-21T10:18:51;9.10;99.90
25554;DHT22;13446;50.926;5.332;2023-02-21T10:21:24;9.00;99.90
25554;DHT22;13446;50.926;5.332;2023-02-21T10:23:52;9.30;99.90
25554;DHT22;13446;50.926;5.332;2023-02-21T10:26:26;9.60;99.90
25554;DHT22;13446;50.926;5.332;2023-02-21T10:28:54;9.80;99.90
25554;DHT22;13446;50.926;5.332;2023-02-21T10:33:58;9.90;99.90
25554;DHT22;13446;50.926;5.332;2023-02-21T10:36:24;9.90;99.90
25554;DHT22;13446;50.926;5.332;2023-02-21T10:38:53;9.80;99.90
25554;DHT22;13446;50.926;5.332;2023-02-21T10:41:19;10.00;99.90
25554;DHT22;13446;50.926;5.332;2023-02-21T10:43:46;10.00;99.90
25554;DHT22;13446;50.926;5.332;2023-02-21T10:48:40;10.10;99.90
25554;DHT22;13446;50.926;5.332;2023-02-21T10:51:14;10.20;99.90
25554;DHT22;13446;50.926;5.332;2023-02-21T10:53:44;10.10;99.90
25554;DHT22;13446;50.926;5.332;2023-02-21T11:03:51;10.40;99.90
25554;DHT22;13446;50.926;5.332;2023-02-21T11:06:26;10.30;99.90
25554;DHT22;13446;50.926;5.332;2023-02-21T11:08:52;10.40;99.90
25554;DHT22;13446;50.926;5.332;2023-02-21T11:11:51;10.50;99.90
25554;DHT22;13446;50.926;5.332;2023-02-21T11:14:18;10.60;99.90
25554;DHT22;13446;50.926;5.332;2023-02-21T11:16:48;10.50;99.90
25554;DHT22;13446;50.926;5.332;2023-02-21T11:19:28;10.40;99.90
25554;DHT22;13446;50.926;5.332;2023-02-21T11:22:05;10.50;99.90
25554;DHT22;13446;50.926;5.332;2023-02-21T11:24:34;10.50;99.90
25554;DHT22;13446;50.926;5.332;2023-02-21T11:27:08;10.50;99.90
25554;DHT22;13446;50.926;5.332;2023-02-21T11:29:34;10.50;99.90
25554;DHT22;13446;50.926;5.332;2023-02-21T11:32:00;10.40;99.90
25554;DHT22;13446;50.926;5.332;2023-02-21T11:34:34;10.40;99.90
25554;DHT22;13446;50.926;5.332;2023-02-21T11:37:01;10.50;99.90
25554;DHT22;13446;50.926;5.332;2023-02-21T11:39:31;10.70;99.90
25554;DHT22;13446;50.926;5.332;2023-02-21T11:41:57;10.80;99.90
25554;DHT22;13446;50.926;5.332;2023-02-21T11:44:32;10.70;99.90
25554;DHT22;13446;50.926;5.332;2023-02-21T11:49:35;10.60;99.90
25554;DHT22;13446;50.926;5.332;2023-02-21T11:52:03;10.50;99.90
25554;DHT22;13446;50.926;5.332;2023-02-21T11:54:30;10.50;99.90
25554;DHT22;13446;50.926;5.332;2023-02-21T11:59:37;10.40;99.90
25554;DHT22;13446;50.926;5.332;2023-02-21T12:13:03;10.40;99.90
25554;DHT22;13446;50.926;5.332;2023-02-21T12:25:19;10.40;99.90
25554;DHT22;13446;50.926;5.332;2023-02-21T12:27:50;10.30;99.90
25554;DHT22;13446;50.926;5.332;2023-02-21T12:43:26;10.20;99.90
25554;DHT22;13446;50.926;5.332;2023-02-21T12:46:02;10.20;99.90
25554;DHT22;13446;50.926;5.332;2023-02-21T12:48:45;10.00;99.90
25554;DHT22;13446;50.926;5.332;2023-02-21T12:51:19;10.10;99.90
25554;DHT22;13446;50.926;5.332;2023-02-21T12:53:50;10.40;99.90
25554;DHT22;13446;50.926;5.332;2023-02-21T12:56:23;10.40;99.90
25554;DHT22;13446;50.926;5.332;2023-02-21T13:01:19;10.50;99.90
25554;DHT22;13446;50.926;5.332;2023-02-21T13:11:30;10.80;99.90
25554;DHT22;13446;50.926;5.332;2023-02-21T13:13:56;10.90;99.90
25554;DHT22;13446;50.926;5.332;2023-02-21T13:16:23;10.80;99.90
25554;DHT22;13446;50.926;5.332;2023-02-21T13:28:56;10.70;99.90
25554;DHT22;13446;50.926;5.332;2023-02-21T13:31:27;10.90;99.90
25554;DHT22;13446;50.926;5.332;2023-02-21T13:33:54;10.80;99.90
25554;DHT22;13446;50.926;5.332;2023-02-21T13:38:56;11.00;99.90
25554;DHT22;13446;50.926;5.332;2023-02-21T13:41:24;10.90;99.90
25554;DHT22;13446;50.926;5.332;2023-02-21T13:43:52;11.00;99.90
25554;DHT22;13446;50.926;5.332;2023-02-21T13:51:49;10.70;99.90
25554;DHT22;13446;50.926;5.332;2023-02-21T13:54:21;10.50;99.90
25554;DHT22;13446;50.926;5.332;2023-02-21T13:56:47;10.50;99.90
25554;DHT22;13446;50.926;5.332;2023-02-21T14:01:48;10.80;99.90
25554;DHT22;13446;50.926;5.332;2023-02-21T14:06:59;10.80;99.90
25554;DHT22;13446;50.926;5.332;2023-02-21T14:09:24;10.90;99.90
25554;DHT22;13446;50.926;5.332;2023-02-21T14:11:50;10.80;99.90
25554;DHT22;13446;50.926;5.332;2023-02-21T14:19:24;10.90;99.90
25554;DHT22;13446;50.926;5.332;2023-02-21T14:22:10;10.90;99.90
25554;DHT22;13446;50.926;5.332;2023-02-21T14:24:38;11.00;99.90
25554;DHT22;13446;50.926;5.332;2023-02-21T14:27:04;11.10;99.90
25554;DHT22;13446;50.926;5.332;2023-02-21T14:32:50;11.30;99.90
25554;DHT22;13446;50.926;5.332;2023-02-21T14:45:17;11.00;99.90
25554;DHT22;13446;50.926;5.332;2023-02-21T14:47:59;11.10;99.90
25554;DHT22;13446;50.926;5.332;2023-02-21T14:50:42;11.10;99.90
25554;DHT22;13446;50.926;5.332;2023-02-21T15:06:24;10.90;99.90
25554;DHT22;13446;50.926;5.332;2023-02-21T15:08:51;10.90;99.90
25554;DHT22;13446;50.926;5.332;2023-02-21T15:13:42;11.00;99.90
25554;DHT22;13446;50.926;5.332;2023-02-21T15:16:09;11.10;99.90
25554;DHT22;13446;50.926;5.332;2023-02-21T15:18:37;11.10;99.90
25554;DHT22;13446;50.926;5.332;2023-02-21T15:23:34;11.10;99.90
25554;DHT22;13446;50.926;5.332;2023-02-21T15:26:22;10.70;99.90
25554;DHT22;13446;50.926;5.332;2023-02-21T15:29:01;10.50;99.90
25554;DHT22;13446;50.926;5.332;2023-02-21T15:31:27;10.30;99.90
25554;DHT22;13446;50.926;5.332;2023-02-21T15:33:53;10.20;99.90
25554;DHT22;13446;50.926;5.332;2023-02-21T15:36:19;10.50;99.90
25554;DHT22;13446;50.926;5.332;2023-02-21T15:41:24;10.40;99.90
25554;DHT22;13446;50.926;5.332;2023-02-21T15:46:27;10.30;99.90
25554;DHT22;13446;50.926;5.332;2023-02-21T15:48:55;10.60;99.90
25554;DHT22;13446;50.926;5.332;2023-02-21T15:51:21;10.20;99.90
25554;DHT22;13446;50.926;5.332;2023-02-21T15:54:06;10.30;99.90
25554;DHT22;13446;50.926;5.332;2023-02-21T15:56:33;10.40;99.90
25554;DHT22;13446;50.926;5.332;2023-02-21T15:59:06;10.60;99.90
25554;DHT22;13446;50.926;5.332;2023-02-21T16:01:35;10.50;99.90
25554;DHT22;13446;50.926;5.332;2023-02-21T16:04:18;10.40;99.90
25554;DHT22;13446;50.926;5.332;2023-02-21T16:06:54;10.40;99.90
25554;DHT22;13446;50.926;5.332;2023-02-21T16:09:25;10.00;99.90
25554;DHT22;13446;50.926;5.332;2023-02-21T16:16:46;10.40;99.90
25554;DHT22;13446;50.926;5.332;2023-02-21T16:19:19;10.50;99.90
25554;DHT22;13446;50.926;5.332;2023-02-21T16:21:46;10.10;99.90
25554;DHT22;13446;50.926;5.332;2023-02-21T16:24:30;10.10;99.90
25554;DHT22;13446;50.926;5.332;2023-02-21T16:27:05;10.20;99.90
25554;DHT22;13446;50.926;5.332;2023-02-21T16:29:33;10.30;99.90
25554;DHT22;13446;50.926;5.332;2023-02-21T16:31:59;10.30;99.90
25554;DHT22;13446;50.926;5.332;2023-02-21T16:34:27;9.90;99.90
25554;DHT22;13446;50.926;5.332;2023-02-21T16:37:04;9.70;99.90
25554;DHT22;13446;50.926;5.332;2023-02-21T16:39:32;9.60;99.90
25554;DHT22;13446;50.926;5.332;2023-02-21T16:41:57;9.60;99.90
25554;DHT22;13446;50.926;5.332;2023-02-21T16:44:23;9.70;99.90
25554;DHT22;13446;50.926;5.332;2023-02-21T16:46:49;9.60;99.90
25554;DHT22;13446;50.926;5.332;2023-02-21T16:49:16;9.60;99.90
25554;DHT22;13446;50.926;5.332;2023-02-21T16:51:42;9.50;99.90
25554;DHT22;13446;50.926;5.332;2023-02-21T16:54:10;9.40;99.90
25554;DHT22;13446;50.926;5.332;2023-02-21T16:56:39;9.50;99.90
25554;DHT22;13446;50.926;5.332;2023-02-21T16:59:10;9.70;99.90
25554;DHT22;13446;50.926;5.332;2023-02-21T17:01:36;9.80;99.90
25554;DHT22;13446;50.926;5.332;2023-02-21T17:04:04;9.90;99.90
25554;DHT22;13446;50.926;5.332;2023-02-21T17:06:32;9.80;99.90
25554;DHT22;13446;50.926;5.332;2023-02-21T17:08:58;9.70;99.90
25554;DHT22;13446;50.926;5.332;2023-02-21T17:11:24;9.50;99.90
25554;DHT22;13446;50.926;5.332;2023-02-21T17:13:50;9.30;99.90
25554;DHT22;13446;50.926;5.332;2023-02-21T17:16:16;9.20;99.90
25554;DHT22;13446;50.926;5.332;2023-02-21T17:18:44;8.80;99.90
25554;DHT22;13446;50.926;5.332;2023-02-21T17:21:10;8.70;99.90
25554;DHT22;13446;50.926;5.332;2023-02-21T17:23:36;8.50;99.90
25554;DHT22;13446;50.926;5.332;2023-02-21T17:26:01;8.50;99.90
25554;DHT22;13446;50.926;5.332;2023-02-21T17:28:28;8.70;99.90
25554;DHT22;13446;50.926;5.332;2023-02-21T17:30:54;8.80;99.90
25554;DHT22;13446;50.926;5.332;2023-02-21T17:33:19;8.90;99.90
25554;DHT22;13446;50.926;5.332;2023-02-21T17:35:47;8.80;99.90
25554;DHT22;13446;50.926;5.332;2023-02-21T17:38:14;8.80;99.90
25554;DHT22;13446;50.926;5.332;2023-02-21T17:40:39;8.90;99.90
25554;DHT22;13446;50.926;5.332;2023-02-21T17:43:05;8.80;99.90
25554;DHT22;13446;50.926;5.332;2023-02-21T17:45:33;8.90;99.90
25554;DHT22;13446;50.926;5.332;2023-02-21T17:48:00;8.90;99.90
25554;DHT22;13446;50.926;5.332;2023-02-21T17:50:28;8.80;99.90
25554;DHT22;13446;50.926;5.332;2023-02-21T17:52:53;9.00;99.90
25554;DHT22;13446;50.926;5.332;2023-02-21T17:55:20;9.00;99.90
25554;DHT22;13446;50.926;5.332;2023-02-21T17:57:46;9.10;99.90
25554;DHT22;13446;50.926;5.332;2023-02-21T18:00:18;9.20;99.90
25554;DHT22;13446;50.926;5.332;2023-02-21T18:02:45;9.10;99.90
25554;DHT22;13446;50.926;5.332;2023-02-21T18:05:11;9.20;99.90
25554;DHT22;13446;50.926;5.332;2023-02-21T18:07:40;9.00;99.90
25554;DHT22;13446;50.926;5.332;2023-02-21T18:10:05;8.90;99.90
25554;DHT22;13446;50.926;5.332;2023-02-21T18:12:31;8.90;99.90
25554;DHT22;13446;50.926;5.332;2023-02-21T18:15:00;8.90;99.90
25554;DHT22;13446;50.926;5.332;2023-02-21T18:17:26;9.00;99.90
25554;DHT22;13446;50.926;5.332;2023-02-21T18:19:52;9.00;99.90
25554;DHT22;13446;50.926;5.332;2023-02-21T18:22:17;9.00;99.90
25554;DHT22;13446;50.926;5.332;2023-02-21T18:24:43;9.00;99.90
25554;DHT22;13446;50.926;5.332;2023-02-21T18:27:09;9.10;99.90
25554;DHT22;13446;50.926;5.332;2023-02-21T18:29:35;9.10;99.90
25554;DHT22;13446;50.926;5.332;2023-02-21T18:32:00;9.10;99.90
25554;DHT22;13446;50.926;5.332;2023-02-21T18:34:27;9.10;99.90
25554;DHT22;13446;50.926;5.332;2023-02-21T18:36:53;8.80;99.90
25554;DHT22;13446;50.926;5.332;2023-02-21T18:39:20;8.70;99.90
25554;DHT22;13446;50.926;5.332;2023-02-21T18:41:47;8.80;99.90
25554;DHT22;13446;50.926;5.332;2023-02-21T18:44:12;8.70;99.90
25554;DHT22;13446;50.926;5.332;2023-02-21T18:46:38;8.60;99.90
25554;DHT22;13446;50.926;5.332;2023-02-21T18:49:08;8.70;99.90
25554;DHT22;13446;50.926;5.332;2023-02-21T18:51:34;8.60;99.90
25554;DHT22;13446;50.926;5.332;2023-02-21T18:54:00;8.60;99.90